Date,TemperatureHighF,TemperatureAvgF,TemperatureLowF,DewpointHighF,DewpointAvgF,DewpointLowF,HumidityHigh,HumidityAvg,HumidityLow,PressureMaxIn,PressureMinIn,WindSpeedMaxMPH,WindSpeedAvgMPH,GustSpeedMaxMPH,PrecipitationSumIn
2013-1-1,17,2,-12,12,-2,-16,87,82,75,30.18,30.08,9,1,9,0.00
2013-1-2,25,16,5,17,11,1,87,81,66,30.09,29.96,11,2,11,0.00
2013-1-3,26,19,7,22,16,3,90,86,79,30.18,29.98,14,4,14,0.00
2013-1-4,29,16,7,21,12,3,88,81,70,30.14,30.02,17,5,17,0.00
2013-1-5,34,22,3,31,18,0,90,86,77,30.14,29.81,17,4,17,0.00
2013-1-6,31,20,2,26,15,-1,87,81,73,30.22,29.82,16,2,17,0.00
2013-1-7,37,22,1,26,16,-2,89,79,65,30.21,29.96,21,3,21,0.00
2013-1-8,38,28,10,31,23,8,90,82,70,30.04,29.88,17,2,17,0.00
2013-1-9,38,31,16,31,24,12,87,77,64,30.40,29.88,24,6,24,0.00
2013-1-10,38,26,10,33,22,7,93,84,67,30.43,29.80,16,2,16,0.19
2013-1-11,46,39,33,44,37,32,96,95,93,29.79,29.54,14,2,14,0.02
2013-1-12,47,32,20,44,27,15,94,81,73,29.96,29.55,23,7,23,0.00
2013-1-13,22,16,10,15,9,4,79,74,63,30.14,29.85,17,4,17,0.00
2013-1-14,26,13,4,13,6,0,84,74,57,30.37,30.14,11,2,11,0.00
2013-1-15,30,16,4,19,9,0,87,74,56,30.34,30.00,13,2,13,0.00
2013-1-16,34,26,12,31,20,7,87,77,67,30.01,29.71,22,5,22,0.00
2013-1-17,29,19,7,21,9,2,83,66,47,30.32,30.01,10,1,10,0.00
2013-1-18,43,30,7,33,23,3,85,76,63,30.34,29.77,26,6,26,0.00
2013-1-19,46,35,13,36,27,3,85,74,47,29.93,29.62,26,6,26,0.00
2013-1-20,18,11,6,4,0,-2,70,63,50,30.25,29.93,20,4,26,0.00
2013-1-21,10,3,-2,1,-6,-10,76,65,53,30.20,30.06,17,5,17,0.00
2013-1-22,11,2,-7,-2,-7,-13,76,67,54,30.28,30.19,13,2,13,0.00
2013-1-23,19,12,3,13,4,-5,82,72,63,30.36,30.01,16,4,16,0.00
2013-1-24,16,7,-2,9,-2,-8,74,68,57,30.57,30.24,10,2,10,0.00
2013-1-25,26,19,12,17,12,4,83,73,63,30.24,29.86,21,4,21,0.00
2013-1-26,28,16,2,14,7,-3,82,67,50,30.32,30.14,9,1,9,0.00
2013-1-27,33,27,20,31,22,12,93,81,68,30.25,29.77,17,3,17,0.00
2013-1-28,44,36,32,38,33,30,95,89,74,29.88,29.70,10,1,10,0.20
2013-1-29,53,41,34,52,40,32,96,95,94,29.70,29.44,8,1,8,1.08
2013-1-30,34,26,14,32,24,11,96,92,86,29.58,29.29,14,4,14,0.06
2013-1-31,14,8,-3,10,3,-7,86,79,73,30.10,29.58,15,5,15,0.00
2013-2-1,5,-1,-11,1,-7,-16,84,75,66,30.24,30.03,14,4,14,0.00
2013-2-2,18,7,-3,9,2,-7,86,79,65,30.04,29.93,10,1,10,0.03
2013-2-3,21,13,3,12,8,-1,87,80,66,29.97,29.87,14,2,14,0.00
2013-2-4,21,12,1,14,8,-3,89,82,69,29.93,29.85,14,3,14,0.00
2013-2-5,30,19,-1,24,14,-5,88,83,77,30.03,29.71,14,2,14,0.00
2013-2-6,33,17,-7,29,12,-11,87,81,68,30.14,29.98,10,1,10,0.00
2013-2-7,35,31,22,33,29,20,94,91,86,30.03,29.86,8,1,8,0.12
2013-2-8,30,19,-2,22,14,-6,91,82,69,30.32,30.03,0,0,0,0.12
2013-2-9,29,21,-3,25,17,-7,91,87,81,30.32,29.99,0,0,0,0.00
2013-2-10,42,33,16,40,31,14,95,92,86,30.00,29.33,24,4,24,0.37
2013-2-11,36,29,23,32,24,18,90,83,77,29.95,29.35,28,12,28,0.00
2013-2-12,31,22,14,22,17,11,89,80,71,30.02,29.80,16,4,16,0.00
2013-2-13,37,25,9,29,20,6,90,82,70,29.80,29.61,11,1,11,0.00
2013-2-14,38,33,26,32,27,20,91,79,61,29.95,29.52,17,3,17,0.02
2013-2-15,29,19,9,21,9,1,78,64,49,30.15,29.94,14,1,14,0.00
2013-2-16,21,8,-3,10,0,-8,82,69,50,30.14,30.07,11,0,11,0.00
2013-2-17,27,13,-7,20,5,-12,82,71,56,30.13,29.83,11,2,11,0.00
2013-2-18,46,33,20,35,27,16,92,79,66,29.83,29.44,14,2,14,0.06
2013-2-19,20,12,5,16,6,-2,86,76,65,30.14,29.54,20,1,20,0.00
2013-2-20,26,13,3,13,4,-4,81,68,55,30.31,30.14,10,2,10,0.00
2013-2-21,25,17,6,22,13,1,92,83,74,30.35,29.94,23,8,24,0.00
2013-2-22,32,26,23,28,24,21,92,89,84,29.94,29.73,22,5,22,0.04
2013-2-23,29,24,19,22,19,14,86,80,69,29.89,29.79,16,6,16,0.02
2013-2-24,42,22,4,27,15,1,87,74,53,30.08,29.89,6,0,6,0.00
2013-2-25,40,26,10,28,19,7,88,77,61,30.10,29.96,8,1,8,0.00
2013-2-26,33,30,28,28,26,23,94,84,76,29.96,29.60,32,14,32,0.00
2013-2-27,34,30,27,32,28,26,94,92,90,29.75,29.59,21,5,23,0.14
2013-2-28,35,31,24,29,26,18,91,81,67,30.08,29.75,17,4,17,0.06
2013-3-1,26,20,2,20,14,-2,86,79,68,30.19,30.08,21,5,21,0.00
2013-3-2,32,12,-6,16,4,-10,85,71,49,30.20,30.10,11,0,11,0.00
2013-3-3,39,14,-7,19,4,-12,82,66,39,30.11,30.02,5,0,5,0.00
2013-3-4,32,22,6,23,15,0,82,75,65,30.06,29.94,18,6,18,0.00
2013-3-5,30,27,25,27,24,22,93,89,81,30.05,29.82,21,6,21,0.04
2013-3-6,35,28,23,27,23,19,90,80,69,30.26,30.05,14,1,14,0.07
2013-3-7,42,21,0,26,13,-4,86,73,51,30.35,30.25,5,0,5,0.00
2013-3-8,40,23,2,28,16,-2,87,77,61,30.38,30.20,11,1,11,0.00
2013-3-9,40,35,28,34,30,23,93,83,74,30.20,29.74,18,3,18,0.44
2013-3-10,39,36,33,38,35,32,95,94,93,29.75,29.58,23,4,23,0.74
2013-3-11,34,32,29,32,30,25,95,92,85,29.72,29.52,17,2,17,0.02
2013-3-12,33,27,21,27,23,18,91,83,70,29.97,29.72,18,4,18,0.06
2013-3-13,36,24,12,19,12,5,86,62,36,30.26,29.96,12,2,12,0.00
2013-3-14,38,22,8,29,17,4,89,80,70,30.26,30.00,9,1,9,0.02
2013-3-15,36,29,20,33,26,18,92,90,83,30.00,29.74,16,3,16,0.18
2013-3-16,33,27,21,26,21,16,91,80,67,30.09,29.73,18,5,18,0.00
2013-3-17,34,24,16,21,15,8,80,70,60,30.18,29.92,17,7,17,0.00
2013-3-18,35,26,16,31,21,10,90,84,74,29.92,29.53,22,4,22,0.15
2013-3-19,30,19,10,15,9,5,82,67,48,30.01,29.68,22,9,22,0.00
2013-3-20,25,15,7,9,4,-1,74,62,50,30.04,29.96,16,5,16,0.00
2013-3-21,34,17,3,15,6,-4,79,64,46,30.01,29.94,8,1,8,0.00
2013-3-22,42,22,3,21,11,-1,84,66,42,30.03,29.96,5,0,5,0.00
2013-3-23,39,28,15,23,18,11,87,68,49,30.07,30.00,13,2,13,0.00
2013-3-24,31,29,27,28,24,20,91,82,72,30.02,29.75,23,9,23,0.00
2013-3-25,35,30,25,26,22,18,78,71,64,30.05,29.78,20,4,20,0.00
2013-3-26,45,34,29,29,24,22,75,66,52,30.21,30.04,8,1,8,0.00
2013-3-27,45,34,21,28,23,16,81,64,42,30.27,30.21,8,0,8,0.00
2013-3-28,50,32,16,28,21,12,89,65,36,30.30,30.23,6,0,6,0.00
2013-3-29,56,37,20,32,24,16,90,63,33,30.27,30.16,4,0,4,0.00
2013-3-30,52,41,29,40,33,23,92,74,60,30.18,29.78,14,3,14,0.00
2013-3-31,48,38,31,39,32,19,93,78,57,29.88,29.69,20,3,20,0.00
2013-4-1,38,30,23,21,16,12,69,55,41,30.15,29.88,17,2,17,0.00
2013-4-2,43,30,19,21,16,12,80,57,34,30.27,30.15,13,1,13,0.00
2013-4-3,46,32,16,24,17,12,86,58,32,30.38,30.21,12,1,12,0.00
2013-4-4,58,42,25,39,28,18,77,60,44,30.21,29.91,22,4,22,0.00
2013-4-5,50,40,26,29,25,20,79,57,37,30.18,30.01,14,3,14,0.00
2013-4-6,61,46,33,48,35,20,88,65,47,30.06,29.51,21,6,21,0.02
2013-4-7,59,46,36,44,36,31,86,70,48,29.90,29.56,20,3,20,0.00
2013-4-8,67,48,37,52,42,32,93,80,53,29.94,29.56,17,4,17,0.69
2013-4-9,44,39,36,42,37,34,95,94,90,29.96,29.80,21,8,21,1.06
2013-4-10,37,34,32,35,32,29,93,92,90,30.03,29.84,25,10,25,0.86
2013-4-11,39,36,34,37,35,33,94,93,91,29.85,29.52,35,11,35,0.16
2013-4-12,42,36,33,38,33,28,96,88,78,29.76,29.48,13,3,13,0.02
2013-4-13,42,34,28,30,28,23,88,77,61,29.94,29.74,19,5,19,0.00
2013-4-14,52,39,30,45,35,26,92,84,68,29.95,29.52,24,8,24,0.12
2013-4-15,60,46,38,50,41,35,95,83,48,29.93,29.55,24,5,25,0.47
2013-4-16,56,43,31,37,33,28,89,68,47,30.24,29.92,14,2,14,0.00
2013-4-17,43,40,38,40,36,32,94,85,70,30.26,29.77,23,7,23,1.06
2013-4-18,59,46,36,58,44,32,96,93,85,29.83,29.29,28,6,28,0.61
2013-4-19,41,35,30,32,28,22,88,76,61,29.87,29.34,24,10,24,0.00
2013-4-20,48,35,23,24,20,15,85,58,31,30.32,29.88,18,1,18,0.00
2013-4-21,54,42,26,37,30,21,82,64,46,30.42,30.19,21,5,21,0.00
2013-4-22,68,54,43,44,39,34,74,57,39,30.20,29.95,17,4,17,0.00
2013-4-23,55,44,37,46,36,28,87,75,61,29.96,29.85,13,2,13,0.24
2013-4-24,55,43,31,32,27,24,77,55,31,30.00,29.93,18,3,18,0.00
2013-4-25,53,42,30,35,31,25,83,66,43,30.24,29.94,20,5,20,0.00
2013-4-26,70,53,29,48,38,24,83,60,42,30.23,30.09,23,7,23,0.00
2013-4-27,65,53,39,50,44,36,91,72,54,30.19,29.96,13,2,13,0.00
2013-4-28,73,54,33,50,42,31,93,69,41,29.97,29.75,11,1,11,0.00
2013-4-29,71,58,43,57,51,40,91,76,56,29.84,29.66,17,3,17,0.03
2013-4-30,87,73,59,62,54,49,89,57,28,29.84,29.63,27,8,27,0.02
2013-5-1,82,66,49,59,50,41,73,58,44,30.16,29.84,15,3,15,0.00
2013-5-2,56,45,36,43,37,33,90,75,59,30.26,30.15,22,6,22,0.10
2013-5-3,47,40,34,45,38,32,95,92,90,30.18,29.94,19,8,19,0.65
2013-5-4,70,56,46,60,49,44,94,81,49,30.01,29.92,18,4,18,0.16
2013-5-5,74,58,42,53,47,40,94,69,41,30.03,29.95,16,3,16,0.00
2013-5-6,74,59,39,52,46,37,93,65,35,30.04,29.95,14,2,14,0.00
2013-5-7,79,63,49,53,46,39,91,60,27,30.03,29.93,13,1,13,0.00
2013-5-8,81,63,42,56,48,39,92,63,34,30.00,29.90,10,1,10,0.00
2013-5-9,63,57,48,58,53,46,94,88,82,29.93,29.80,17,3,17,0.82
2013-5-10,52,46,41,47,43,38,93,89,82,29.96,29.83,18,4,18,0.33
2013-5-11,55,47,38,49,36,26,94,68,41,30.02,29.77,21,3,21,0.02
2013-5-12,57,44,31,32,28,23,82,53,33,30.08,30.01,17,2,17,0.00
2013-5-13,66,50,27,39,33,24,90,57,29,30.12,29.85,13,2,13,0.00
2013-5-14,90,72,52,61,51,38,66,48,28,29.86,29.54,19,4,19,0.00
2013-5-15,80,68,50,60,48,42,79,50,31,29.83,29.54,14,2,14,0.00
2013-5-16,86,67,44,56,48,40,88,55,29,29.92,29.81,16,2,16,0.00
2013-5-17,68,58,49,56,48,37,89,69,48,30.03,29.91,18,6,18,0.28
2013-5-18,80,66,51,66,57,46,86,73,58,30.01,29.87,10,2,10,0.00
2013-5-19,86,72,58,68,62,55,91,74,51,29.90,29.63,36,3,36,0.04
2013-5-21,76,67,55,60,56,54,97,70,54,29.66,29.61,20,6,22,0.00
2013-5-22,72,60,50,62,56,50,99,87,62,29.73,26.59,20,4,20,0.00
2013-5-23,64,53,38,54,45,33,98,76,39,30.23,29.73,24,9,24,0.02
2013-5-24,66,50,32,44,38,31,99,68,37,30.38,30.22,15,3,15,0.00
2013-5-25,58,51,44,43,41,36,91,68,46,30.32,30.22,17,3,17,0.06
2013-5-26,65,54,40,51,44,37,95,71,45,30.23,30.08,17,5,17,0.01
2013-5-27,55,53,50,53,28,-45,99,73,1,30.07,29.82,89,28,89,0.00
2013-5-28,73,61,51,66,59,51,99,92,77,29.82,29.65,12,4,12,0.72
2013-5-29,82,70,61,68,64,59,99,81,61,29.87,29.72,18,5,18,0.34
2013-5-30,82,71,62,70,64,59,98,81,57,29.84,29.66,30,8,30,0.32
2013-5-31,78,68,62,66,61,59,95,81,58,29.73,29.63,21,8,21,0.01
2013-6-1,79,68,60,66,60,54,99,78,50,29.68,28.92,21,6,21,0.00
2013-6-2,64,54,46,56,45,40,89,72,50,29.97,29.68,17,5,17,0.00
2013-6-3,71,53,46,48,44,42,92,75,36,30.03,29.95,11,1,11,0.00
2013-6-4,69,59,47,54,48,43,95,71,46,30.11,30.01,13,3,13,0.04
2013-6-5,68,56,47,59,52,45,95,86,66,30.07,29.87,13,4,13,0.25
2013-6-6,58,55,52,56,52,49,97,92,85,29.91,29.86,11,4,11,0.22
2013-6-7,71,58,49,56,51,48,96,78,52,29.94,29.86,13,3,13,0.00
2013-6-8,72,60,45,56,50,44,99,71,44,29.94,28.42,13,2,13,0.00
2013-6-9,78,66,54,62,56,47,96,72,52,29.94,29.75,21,5,21,0.20
2013-6-10,81,68,54,65,61,53,99,79,52,29.83,29.73,11,2,11,0.01
2013-6-11,84,70,51,66,61,51,99,76,50,29.87,29.76,12,2,12,0.00
2013-6-12,79,70,62,70,65,60,96,85,70,29.88,29.59,21,6,21,0.44
2013-6-13,79,67,55,62,57,53,96,72,47,30.01,29.71,17,5,17,0.01
2013-6-14,78,66,49,60,56,48,98,73,46,30.11,29.94,10,3,14,0.00
2013-6-15,83,69,58,69,62,52,94,78,58,30.01,29.77,17,5,17,0.07
2013-6-16,85,73,56,68,60,52,95,68,34,29.89,29.81,18,4,18,0.20
2013-6-17,87,71,54,62,57,53,97,66,36,29.92,29.83,21,4,21,0.00
2013-6-18,72,62,50,59,53,46,89,72,54,30.04,29.92,19,7,19,0.00
2013-6-19,80,64,43,57,51,42,99,68,40,30.09,30.00,11,2,11,0.00
2013-6-20,86,71,52,62,57,47,86,63,40,30.09,29.99,14,3,14,0.00
2013-6-21,79,70,64,67,64,60,97,81,63,30.06,29.81,17,4,17,0.66
2013-6-22,83,71,65,73,66,63,97,86,62,30.07,29.87,21,6,21,0.78
2013-6-23,85,72,60,73,66,60,99,82,61,30.03,29.83,19,5,19,0.12
2013-6-24,81,71,65,69,66,63,98,85,64,29.98,29.79,20,4,20,0.00
2013-6-25,83,72,64,74,68,63,99,89,69,29.95,29.76,17,3,17,2.55
2013-6-26,84,75,65,71,69,64,99,83,59,29.76,29.68,22,4,22,1.30
2013-6-27,87,76,63,72,66,59,99,74,46,29.78,29.69,17,4,17,0.00
2013-6-28,79,68,59,66,61,57,96,79,53,29.73,29.62,17,4,17,0.28
2013-6-29,72,66,62,65,61,56,97,85,62,29.81,29.61,23,6,23,0.08
2013-6-30,77,66,53,61,54,49,95,68,45,30.01,29.81,19,7,19,0.00
2013-7-1,79,65,50,58,53,49,99,70,41,30.08,30.01,23,6,23,0.00
2013-7-2,74,63,50,59,52,42,99,71,33,30.08,30.02,17,4,17,0.00
2013-7-3,77,61,48,60,55,48,99,83,44,30.04,29.92,9,2,9,0.00
2013-7-4,83,68,51,64,58,51,99,73,41,29.99,29.90,12,2,12,0.30
2013-7-5,85,72,58,66,62,57,99,74,46,29.96,29.89,110,4,110,0.00
2013-7-6,87,72,59,67,62,58,98,75,48,29.94,29.84,12,3,12,0.30
2013-7-7,88,76,62,71,67,61,97,76,52,29.89,29.81,12,3,12,0.00
2013-7-8,90,78,70,75,71,68,95,80,58,29.88,29.73,14,4,49,0.27
2013-7-9,85,75,66,76,71,66,99,88,67,29.90,29.74,18,4,18,0.06
2013-7-10,79,72,58,72,68,56,94,87,49,29.93,29.74,8,1,8,0.00
2013-7-11,82,65,58,62,57,56,94,80,43,30.05,29.91,16,1,16,0.00
2013-7-12,81,66,56,61,58,55,95,78,44,30.06,29.92,11,2,11,0.00
2013-7-13,84,69,53,65,58,52,98,71,46,30.00,29.92,13,3,13,0.00
2013-7-14,88,72,54,69,63,53,97,74,48,30.06,29.99,14,2,14,0.00
2013-7-15,91,78,61,73,68,60,96,74,48,30.12,30.04,12,2,12,0.00
2013-7-16,92,80,67,75,71,66,96,77,53,30.13,30.07,13,3,13,0.00
2013-7-17,94,81,69,77,72,67,95,77,50,30.14,30.01,12,2,12,0.09
2013-7-18,92,81,67,74,70,66,97,73,50,30.02,29.76,18,5,18,0.01
2013-7-19,81,76,64,72,68,53,92,79,69,30.22,29.73,11,5,11,2.89
2013-7-20,86,72,56,66,62,55,98,73,46,30.11,29.99,12,3,12,0.00
2013-7-21,84,67,60,69,61,55,94,81,57,30.12,30.03,24,5,24,1.02
2013-7-22,85,71,59,72,64,58,97,81,55,30.04,29.85,27,4,27,0.59
2013-7-23,77,66,53,63,56,51,96,72,50,30.14,29.88,15,5,15,0.00
2013-7-24,76,62,48,58,52,47,99,75,46,30.23,30.13,11,2,11,0.00
2013-7-25,80,63,49,64,57,49,99,82,43,30.20,29.83,15,3,15,1.42
2013-7-26,78,66,56,67,60,53,96,83,48,29.83,29.71,16,4,16,0.15
2013-7-27,64,56,51,54,47,43,88,75,53,30.55,29.73,15,5,15,0.00
2013-7-28,68,58,51,54,50,47,93,76,57,29.88,29.71,13,4,14,0.02
2013-7-29,77,62,48,60,54,47,96,76,54,30.01,29.88,10,2,10,0.00
2013-7-30,71,62,50,62,57,49,98,85,69,30.02,29.93,9,2,9,0.00
2013-7-31,80,68,56,66,62,55,96,82,59,29.94,29.83,14,2,14,0.17
2013-8-1,79,66,53,60,56,52,97,74,44,29.88,29.77,13,3,13,0.00
2013-8-2,81,69,59,67,60,54,95,75,48,29.84,29.70,10,2,10,0.44
2013-8-3,78,64,49,59,53,48,97,72,44,30.00,29.83,11,2,11,0.00
2013-8-4,78,63,47,61,54,46,98,78,44,30.08,29.96,11,2,11,0.00
2013-8-5,71,63,53,64,59,52,97,88,68,29.96,29.72,16,3,16,0.05
2013-8-6,84,73,63,69,66,62,97,81,59,29.75,29.66,11,3,11,0.01
2013-8-7,80,72,58,70,64,56,95,78,56,30.52,29.62,14,4,14,0.00
2013-8-8,81,67,55,65,59,53,96,78,47,29.91,29.84,12,2,12,0.00
2013-8-9,80,66,54,64,58,52,97,77,52,29.93,29.84,11,2,11,0.00
2013-8-10,77,63,48,59,54,48,97,75,47,30.02,29.93,10,2,10,0.00
2013-8-11,75,63,49,64,58,48,97,86,67,30.00,29.88,10,2,10,0.14
2013-8-12,82,69,56,67,62,53,96,79,51,29.90,29.78,11,2,11,0.05
2013-8-13,72,62,51,57,51,46,93,69,44,30.01,29.85,17,5,17,0.00
2013-8-14,75,56,42,55,49,41,98,80,44,30.08,29.98,9,1,9,0.00
2013-8-15,78,62,50,59,53,49,97,77,39,30.00,29.94,8,1,9,0.00
2013-8-16,82,64,47,59,53,46,98,72,37,30.05,29.98,11,2,11,0.00
2013-8-17,82,64,47,59,53,46,98,71,34,30.10,30.01,13,2,13,0.00
2013-8-18,82,64,46,61,54,45,98,72,36,30.07,29.95,11,2,11,0.22
2013-8-19,82,66,49,64,57,48,98,77,46,29.96,29.88,14,2,14,0.00
2013-8-20,86,71,54,67,61,53,97,74,46,29.93,29.85,15,4,15,0.00
2013-8-21,89,77,67,69,66,62,91,70,47,29.88,29.79,21,6,21,0.00
2013-8-22,79,69,60,68,65,59,96,88,66,30.00,29.84,21,3,21,0.64
2013-8-23,82,68,52,63,58,52,98,74,44,30.04,29.97,12,2,12,0.00
2013-8-24,84,69,54,67,60,52,95,76,43,30.03,29.77,12,3,12,0.00
2013-8-25,87,77,66,69,66,53,88,70,49,29.95,29.84,18,6,18,0.00
2013-8-26,90,78,68,74,68,63,88,72,54,29.95,29.79,15,4,15,0.00
2013-8-27,93,80,69,73,70,65,92,72,51,29.80,29.65,20,5,20,0.00
2013-8-28,84,74,65,71,68,63,95,83,61,29.88,29.67,12,4,12,0.00
2013-8-29,86,73,58,70,64,57,97,78,49,29.92,29.78,11,3,12,0.00
2013-8-30,94,78,67,76,70,65,95,77,51,29.80,29.61,14,5,14,0.00
2013-8-31,83,70,60,69,63,58,94,78,60,29.72,29.63,16,4,16,0.00
2013-9-1,86,70,58,70,63,55,98,80,47,29.69,29.56,13,3,13,0.00
2013-9-2,70,61,49,58,54,47,96,79,56,29.84,29.68,14,3,14,0.00
2013-9-3,75,58,42,57,50,42,99,78,47,29.93,29.83,9,2,9,0.00
2013-9-4,86,64,43,64,55,42,99,76,45,29.94,29.86,11,2,11,0.00
2013-9-5,76,67,55,62,58,47,95,74,58,30.08,29.93,15,6,15,0.00
2013-9-6,54,51,50,48,47,47,89,88,76,30.04,30.02,4,0,4,0.00
2013-9-7,91,67,50,71,58,47,93,76,44,30.08,29.87,15,2,15,0.00
2013-9-8,72,68,62,66,62,57,87,82,75,30.06,29.94,24,9,24,0.00
2013-9-9,93,76,63,74,67,61,96,76,50,29.95,29.77,16,4,16,0.00
2013-9-10,94,82,69,66,63,59,78,55,35,29.95,29.83,22,7,22,0.00
2013-9-11,85,71,59,68,63,58,95,79,49,30.09,29.95,15,3,15,0.18
2013-9-12,75,62,51,60,52,46,98,72,44,30.13,29.98,19,4,19,0.00
2013-9-13,67,53,39,46,42,38,95,69,37,30.22,30.12,15,4,15,0.00
2013-9-14,72,54,34,50,42,32,99,69,38,30.15,29.96,13,3,13,0.00
2013-9-15,61,55,49,56,52,46,96,90,69,30.20,29.94,17,4,17,0.53
2013-9-16,65,54,42,52,45,38,91,73,49,30.38,28.08,17,7,17,0.00
2013-9-17,69,53,35,54,47,33,98,79,56,30.31,30.05,15,3,15,0.01
2013-9-18,77,66,58,66,60,53,91,79,64,30.05,29.86,19,5,19,0.00
2013-9-19,87,71,65,71,66,61,96,85,53,29.89,29.71,30,5,30,1.42
2013-9-20,70,64,53,65,58,50,96,81,62,29.84,29.73,16,6,16,0.00
2013-9-21,64,53,40,50,46,39,96,79,54,29.94,29.83,14,3,14,0.00
2013-9-22,67,51,36,50,43,35,99,77,52,30.06,29.93,10,2,10,0.00
2013-9-23,69,54,38,53,46,37,97,76,53,30.09,29.99,14,4,15,0.00
2013-9-24,72,56,38,54,47,37,98,75,46,30.02,29.92,16,3,16,0.00
2013-9-25,73,56,40,55,48,39,98,77,47,29.98,29.91,17,3,17,0.00
2013-9-26,77,56,37,58,48,35,98,77,44,30.06,29.96,13,3,13,0.00
2013-9-27,81,61,41,56,49,40,98,69,34,30.11,27.01,16,3,16,0.00
2013-9-28,80,63,52,64,54,46,93,74,50,30.01,29.82,26,6,26,0.24
2013-9-29,71,54,41,54,46,41,99,76,38,30.06,29.96,8,2,8,0.01
2013-9-30,73,56,37,49,44,36,99,70,34,29.97,29.79,19,4,19,0.00
2013-10-1,81,63,48,60,54,44,96,76,47,29.96,29.81,21,5,21,0.00
2013-10-2,78,59,39,54,45,36,99,67,27,30.10,29.95,11,2,11,0.00
2013-10-3,76,63,52,66,58,42,96,82,60,29.95,29.80,16,3,16,0.00
2013-10-4,68,64,58,66,62,57,98,95,86,29.98,29.84,16,4,16,0.39
2013-10-5,74,65,54,70,62,44,99,91,65,30.60,29.73,16,5,16,0.08
2013-10-6,59,49,38,46,41,36,96,76,48,30.51,29.66,14,4,14,0.01
2013-10-7,69,52,37,47,42,36,95,73,38,30.05,29.70,15,4,15,0.00
2013-10-8,76,54,34,52,42,33,98,69,30,30.11,30.04,21,3,21,0.00
2013-10-9,73,55,41,51,44,39,96,71,35,30.17,30.07,29,2,29,0.00
2013-10-10,73,49,34,54,42,33,99,81,42,30.13,30.05,12,2,12,0.00
2013-10-11,74,60,41,58,51,41,99,75,52,30.00,29.86,14,3,14,0.00
2013-10-12,70,60,37,58,48,34,90,67,37,30.13,29.85,21,6,21,0.00
2013-10-13,63,45,31,44,34,28,95,70,29,30.37,30.13,11,2,11,0.00
2013-10-14,62,45,27,45,37,24,94,74,50,30.38,30.07,19,5,19,0.00
2013-10-15,61,52,48,57,47,42,94,83,69,30.07,29.71,22,7,22,0.32
2013-10-16,53,48,46,48,45,42,93,87,78,29.91,29.75,17,6,17,0.01
2013-10-17,55,45,33,45,41,30,97,86,59,29.89,29.78,8,2,8,0.09
2013-10-18,47,40,32,42,36,30,96,83,64,29.91,29.77,20,4,20,0.00
2013-10-19,53,39,28,41,33,24,93,82,44,29.88,29.69,24,4,24,0.05
2013-10-20,46,39,26,40,34,23,94,81,74,29.81,29.69,9,4,9,0.12
2013-10-21,46,38,29,40,28,20,84,66,49,29.92,29.72,20,7,20,0.01
2013-10-22,46,34,20,30,24,14,81,68,47,29.94,29.86,12,2,12,0.00
2013-10-23,44,33,22,29,24,17,85,69,46,29.99,29.91,15,3,15,0.00
2013-10-24,45,35,28,26,23,19,75,62,42,30.74,29.98,17,4,17,0.00
2013-10-25,52,38,20,30,23,15,85,58,34,30.30,29.88,28,8,28,0.00
2013-10-26,54,43,29,36,28,22,80,55,34,30.03,29.76,27,8,27,0.00
2013-10-27,55,37,22,31,24,18,86,63,31,30.03,29.85,22,4,22,0.00
2013-10-28,43,38,27,32,29,21,85,69,61,30.35,29.99,28,10,28,0.00
2013-10-29,50,43,36,39,34,26,84,70,63,30.34,30.08,13,6,13,0.00
2013-10-30,54,48,41,52,46,36,95,92,83,30.08,29.70,17,4,17,0.00
2013-10-31,61,54,42,58,51,38,94,90,85,29.70,29.28,19,7,19,0.54
2013-11-1,47,42,34,41,38,30,88,84,77,29.72,29.34,17,6,17,0.01
2013-11-2,46,38,27,36,31,12,88,77,60,30.11,29.72,14,3,14,0.01
2013-11-3,51,37,21,37,28,17,85,71,47,30.23,30.10,16,4,16,0.00
2013-11-4,51,47,40,44,37,32,85,68,57,30.14,29.98,24,8,24,0.00
2013-11-5,54,49,44,48,44,40,90,84,70,30.20,29.88,19,4,19,0.25
2013-11-6,77,48,27,57,39,18,87,73,43,30.09,29.88,12,5,15,0.00
2013-11-7,44,33,24,31,24,16,79,69,53,30.15,30.08,12,3,12,0.00
2013-11-8,46,35,18,32,25,12,81,67,54,30.19,29.71,21,5,21,0.00
2013-11-9,53,45,36,38,32,21,72,60,47,30.03,29.68,28,12,28,0.00
2013-11-10,50,41,33,29,26,21,65,57,43,30.24,30.03,18,7,18,0.00
2013-11-11,43,31,18,31,21,6,83,65,55,30.47,29.97,18,5,18,0.05
2013-11-12,32,22,14,15,8,4,64,56,42,30.61,30.44,13,5,13,0.02
2013-11-13,42,27,14,16,10,5,66,50,29,30.45,29.97,21,8,24,0.00
2013-11-14,48,38,31,28,21,13,72,52,42,29.98,29.80,22,7,22,0.00
2013-11-15,56,41,27,36,29,19,78,62,44,29.85,29.78,14,4,14,0.00
2013-11-16,57,47,32,52,42,25,91,84,76,29.79,29.39,23,10,30,0.22
2013-11-17,57,49,37,52,44,28,90,83,71,29.63,29.12,29,9,29,0.64
2013-11-18,40,33,27,29,22,17,74,63,49,30.10,29.63,24,9,24,0.01
2013-11-19,140,30,28,100,20,18,82,65,43,30.10,29.71,7,3,7,0.00
2013-11-20,74,63,48,59,51,42,99,70,34,29.95,29.87,17,5,17,0.00
2013-11-21,77,54,37,60,46,30,98,75,43,30.04,29.87,12,4,12,0.00
2013-11-22,37,30,22,30,20,9,84,67,46,30.26,30.04,12,5,14,0.07
2013-11-23,140,18,8,100,1,-7,65,46,34,30.42,29.37,21,8,21,0.19
2013-11-24,27,17,4,3,-2,-6,64,44,24,29.91,29.48,25,8,25,0.00
2013-11-25,29,25,20,22,15,2,77,65,39,29.48,29.25,25,11,25,0.00
2013-11-26,32,24,10,22,11,-5,75,57,38,29.46,29.25,20,6,20,0.00
2013-11-27,28,17,7,7,1,-9,59,50,33,29.51,29.42,12,4,12,0.00
2013-11-28,31,23,9,13,8,-2,65,53,43,29.72,29.36,14,3,14,0.00
2013-11-29,31,18,1,15,6,-8,70,58,48,29.83,29.55,14,3,14,0.00
2013-11-30,43,30,21,28,20,12,78,66,55,29.55,29.27,14,4,14,0.00
2013-12-1,41,31,24,26,21,16,82,68,52,29.39,29.21,12,2,12,0.00
2013-12-2,39,29,16,30,22,9,84,74,62,29.21,28.97,17,4,17,0.05
2013-12-3,38,36,33,36,32,28,91,87,84,29.00,28.91,12,6,13,0.06
2013-12-4,48,39,32,46,36,26,92,88,75,28.99,28.71,30,7,30,0.05
2013-12-5,32,20,12,26,8,0,79,59,47,29.51,28.90,32,11,32,0.00
2013-12-6,18,10,5,0,-4,-8,59,52,37,29.77,29.49,11,5,11,0.00
2013-12-7,17,6,0,-4,-9,-13,61,50,26,29.91,29.77,9,3,9,0.00
2013-12-8,19,14,6,12,3,-8,73,61,44,29.80,29.18,16,5,16,0.00
2013-12-9,16,6,-15,9,-6,-28,73,57,42,29.42,29.16,28,7,28,0.00
2013-12-10,18,6,-17,3,-8,-32,66,52,42,29.47,29.13,24,8,24,0.00
2013-12-11,14,5,-11,5,-11,-28,68,47,26,29.73,29.46,16,4,16,0.00
2013-12-12,17,8,-8,3,-7,-24,61,51,42,29.70,29.39,16,6,16,0.00
2013-12-13,23,17,9,12,6,-2,68,62,52,29.42,29.35,21,8,21,0.00
2013-12-14,24,19,15,14,10,6,72,67,59,29.39,29.16,21,8,21,0.00
2013-12-15,18,10,9,7,-3,-4,63,55,53,29.22,29.16,21,6,21,0.00
2013-12-16,77,10,9,53,-3,-4,71,57,44,30.03,29.21,9,5,9,0.00
2013-12-17,36,24,14,22,12,1,77,61,43,29.97,29.80,20,9,20,0.12
2013-12-18,35,22,4,21,8,-8,69,56,40,29.99,29.66,21,5,21,0.00
2013-12-19,31,24,15,22,15,7,78,69,57,29.86,29.68,21,7,21,0.00
2013-12-20,23,21,19,17,15,13,79,77,74,29.79,29.70,23,7,23,0.00
2013-12-21,22,22,22,16,16,16,79,79,79,29.72,29.72,3,3,4,0.00
2013-12-22,25,22,12,17,16,3,79,77,66,30.14,29.72,8,2,8,0.05
2013-12-23,22,6,-8,16,-5,-21,78,60,47,30.44,30.14,13,6,14,0.00
2013-12-24,9,-1,-17,-2,-14,-42,64,54,44,30.54,30.28,8,2,8,0.00
2013-12-25,22,18,7,15,10,-2,75,71,63,30.28,30.09,14,6,14,0.00
2013-12-26,28,19,5,17,10,-5,74,66,58,30.24,30.12,10,3,12,0.01
2013-12-27,36,24,5,24,14,-4,76,67,60,30.26,30.04,21,4,21,0.00
2013-12-28,44,33,16,28,22,8,77,65,54,30.08,29.78,17,6,17,0.08
2013-12-29,36,18,-6,26,6,-22,76,58,44,30.26,27.93,24,7,24,0.00
2013-12-30,77,-6,-21,53,-22,-36,55,46,31,30.32,29.88,7,1,7,0.00
2013-12-31,7,-2,-17,-6,-14,-30,59,53,48,30.06,29.90,13,2,13,0.00
2014-1-1,8,4,-1,-8,-12,-18,54,47,41,30.08,30.00,17,9,17,0.00
2014-1-2,14,3,-18,-3,-13,-38,55,46,38,30.14,29.97,15,4,15,0.00